Time;durP1;ratioP1;P1;durP2;ratioP2;P2;SDS_P1;SDS_P2;PMS_P1;PMS_P2;Temp;Humidity;BMP_temperature;BMP_pressure;BME280_temperature;BME280_humidity;BME280_pressure;Samples;Min_cycle;Max_cycle;Signal;HPM_P1;HPM_P2
2021/09/22 00:00:44;;;;;;;17.08;11.50;;;;;;;;;;5013104;28;20087;-58
2021/09/22 00:03:09;;;;;;;17.97;11.80;;;;;;;;;;5012321;28;20018;-57
2021/09/22 00:05:41;;;;;;;18.95;11.93;;;;;;;;;;5012420;28;20330;-58
2021/09/22 00:08:09;;;;;;;16.33;11.15;;;;;;;;;;5013699;28;20025;-56
2021/09/22 00:10:34;;;;;;;17.27;12.02;;;;;;;;;;5013185;28;20017;-57
2021/09/22 00:12:59;;;;;;;15.93;11.07;;;;;;;;;;5012224;28;20026;-58
2021/09/22 00:15:31;;;;;;;15.80;11.07;;;;;;;;;;4992876;28;20327;-55
2021/09/22 00:17:56;;;;;;;14.95;10.95;;;;;;;;;;4993969;28;20350;-55
2021/09/22 00:20:25;;;;;;;19.00;11.70;;;;;;;;;;4999791;28;20023;-59
2021/09/22 00:22:51;;;;;;;16.73;11.05;;;;;;;;;;4992537;28;20617;-56
2021/09/22 00:25:16;;;;;;;15.23;10.65;;;;;;;;;;4993653;28;20022;-57
2021/09/22 00:27:42;;;;;;;17.85;11.43;;;;;;;;;;4992190;28;20026;-57
2021/09/22 00:30:08;;;;;;;16.85;10.75;;;;;;;;;;4993570;28;20026;-56
2021/09/22 00:32:33;;;;;;;17.48;11.73;;;;;;;;;;4993150;28;20129;-58
2021/09/22 00:34:58;;;;;;;17.10;11.17;;;;;;;;;;4993519;28;20520;-60
2021/09/22 00:37:23;;;;;;;18.60;11.43;;;;;;;;;;4993668;28;20298;-59
2021/09/22 00:39:49;;;;;;;15.87;11.57;;;;;;;;;;4993522;28;20316;-58
2021/09/22 00:42:14;;;;;;;16.53;11.17;;;;;;;;;;4992767;28;20049;-59
2021/09/22 00:45:06;;;;;;;18.15;12.32;;;;;;;;;;4991854;28;20354;-58
2021/09/22 00:47:31;;;;;;;16.92;11.88;;;;;;;;;;5006948;28;20038;-58
2021/09/22 00:49:56;;;;;;;17.13;11.60;;;;;;;;;;5013149;28;20018;-58
2021/09/22 00:52:25;;;;;;;18.98;11.38;;;;;;;;;;5012329;28;20344;-57
2021/09/22 00:54:52;;;;;;;17.88;12.38;;;;;;;;;;5011469;28;20144;-58
2021/09/22 00:57:21;;;;;;;19.35;12.73;;;;;;;;;;5011443;28;20026;-58
2021/09/22 00:59:49;;;;;;;19.25;12.88;;;;;;;;;;5012784;28;20053;-58
2021/09/22 01:02:20;;;;;;;18.10;11.60;;;;;;;;;;5012137;28;20101;-58
2021/09/22 01:04:48;;;;;;;19.33;12.07;;;;;;;;;;5011325;28;20372;-57
2021/09/22 01:07:16;;;;;;;18.55;11.43;;;;;;;;;;5012389;28;20093;-57
2021/09/22 01:09:45;;;;;;;18.85;12.93;;;;;;;;;;5012470;28;20500;-57
2021/09/22 01:12:10;;;;;;;20.05;13.10;;;;;;;;;;5010746;28;20124;-57
2021/09/22 01:14:36;;;;;;;20.42;12.23;;;;;;;;;;5010650;28;20104;-57
2021/09/22 01:17:04;;;;;;;20.77;12.68;;;;;;;;;;4992799;28;20081;-54
2021/09/22 01:19:32;;;;;;;19.35;12.70;;;;;;;;;;4993211;28;20110;-56
2021/09/22 01:21:58;;;;;;;17.38;11.75;;;;;;;;;;4992212;28;20113;-57
2021/09/22 01:24:29;;;;;;;19.00;12.27;;;;;;;;;;4991432;28;20113;-60
2021/09/22 01:26:54;;;;;;;17.45;12.25;;;;;;;;;;4992843;28;20342;-58
2021/09/22 01:29:20;;;;;;;23.23;12.40;;;;;;;;;;4992541;28;20025;-57
2021/09/22 01:31:51;;;;;;;20.73;12.35;;;;;;;;;;4992164;28;20261;-58
2021/09/22 01:34:16;;;;;;;21.20;12.18;;;;;;;;;;4992264;28;20029;-58
2021/09/22 01:36:46;;;;;;;24.50;11.98;;;;;;;;;;4992453;28;20035;-56
2021/09/22 01:39:12;;;;;;;20.42;14.25;;;;;;;;;;4991082;28;20076;-60
2021/09/22 01:41:37;;;;;;;19.70;13.30;;;;;;;;;;4992019;28;20049;-57
2021/09/22 01:44:08;;;;;;;24.40;13.43;;;;;;;;;;4992131;28;20353;-57
2021/09/22 01:46:36;;;;;;;22.20;13.13;;;;;;;;;;4992429;28;20295;-58
2021/09/22 01:49:02;;;;;;;21.05;13.57;;;;;;;;;;4992257;28;20026;-58
2021/09/22 01:51:27;;;;;;;19.85;12.45;;;;;;;;;;4992093;28;20029;-60
2021/09/22 01:53:52;;;;;;;21.02;14.23;;;;;;;;;;4992577;28;20034;-57
2021/09/22 01:56:20;;;;;;;17.90;12.43;;;;;;;;;;4992341;28;20466;-58
2021/09/22 01:58:46;;;;;;;23.08;13.93;;;;;;;;;;4990705;28;20273;-59
2021/09/22 02:01:13;;;;;;;17.70;13.00;;;;;;;;;;4991666;28;20409;-60
2021/09/22 02:03:45;;;;;;;21.73;13.80;;;;;;;;;;4991958;28;20023;-58
2021/09/22 02:06:12;;;;;;;26.48;13.55;;;;;;;;;;4992020;28;20474;-58
2021/09/22 02:08:40;;;;;;;21.70;13.38;;;;;;;;;;4991630;28;20034;-58
2021/09/22 02:11:06;;;;;;;20.05;12.75;;;;;;;;;;4991727;28;20022;-54
2021/09/22 02:13:31;;;;;;;22.67;13.48;;;;;;;;;;5005662;28;20105;-56
2021/09/22 02:16:00;;;;;;;23.23;13.63;;;;;;;;;;4999355;28;20018;-56
2021/09/22 02:18:25;;;;;;;23.75;13.73;;;;;;;;;;4992163;28;20274;-58
2021/09/22 02:20:50;;;;;;;18.63;12.87;;;;;;;;;;4990236;28;20394;-58
2021/09/22 02:23:22;;;;;;;20.17;13.60;;;;;;;;;;4992685;28;20280;-57
2021/09/22 02:25:50;;;;;;;19.38;13.40;;;;;;;;;;4994622;28;20347;-60
2021/09/22 02:28:15;;;;;;;22.13;12.93;;;;;;;;;;4994656;28;20563;-60
2021/09/22 02:30:41;;;;;;;19.90;13.27;;;;;;;;;;4995374;28;20109;-58
2021/09/22 02:33:06;;;;;;;21.50;13.18;;;;;;;;;;4995933;28;20269;-59
2021/09/22 02:35:31;;;;;;;23.30;14.17;;;;;;;;;;4995868;28;20036;-59
2021/09/22 02:38:09;;;;;;;21.42;14.20;;;;;;;;;;4994672;28;20345;-57
2021/09/22 02:40:34;;;;;;;19.48;13.18;;;;;;;;;;4995160;28;20026;-58
2021/09/22 02:43:02;;;;;;;18.42;13.05;;;;;;;;;;4996356;28;20027;-57
2021/09/22 02:45:28;;;;;;;19.65;13.68;;;;;;;;;;4995448;28;20046;-60
2021/09/22 02:47:53;;;;;;;23.57;14.50;;;;;;;;;;4995686;28;20373;-57
2021/09/22 02:50:45;;;;;;;23.55;14.80;;;;;;;;;;4993784;28;20615;-58
2021/09/22 02:53:13;;;;;;;21.45;14.10;;;;;;;;;;4994166;28;20034;-58
2021/09/22 02:55:39;;;;;;;21.27;14.30;;;;;;;;;;4995706;28;20069;-58
2021/09/22 02:58:10;;;;;;;20.67;14.18;;;;;;;;;;4994147;28;20054;-54
2021/09/22 03:00:35;;;;;;;22.67;14.50;;;;;;;;;;4994774;28;20022;-60
2021/09/22 03:03:01;;;;;;;23.83;14.32;;;;;;;;;;4993986;28;20077;-57
2021/09/22 03:05:26;;;;;;;24.67;14.48;;;;;;;;;;4995280;28;20023;-58
2021/09/22 03:07:51;;;;;;;23.67;14.90;;;;;;;;;;4995202;28;20057;-58
2021/09/22 03:10:19;;;;;;;21.47;14.00;;;;;;;;;;4993298;28;20026;-57
2021/09/22 03:12:47;;;;;;;25.02;14.07;;;;;;;;;;5002318;28;20273;-61
2021/09/22 03:15:16;;;;;;;21.52;14.85;;;;;;;;;;4994614;28;20062;-57
2021/09/22 03:17:41;;;;;;;25.02;14.82;;;;;;;;;;4994966;28;20029;-58
2021/09/22 03:20:07;;;;;;;23.35;15.48;;;;;;;;;;4994611;28;20026;-57
2021/09/22 03:22:32;;;;;;;28.77;15.55;;;;;;;;;;4994698;28;20470;-59
2021/09/22 03:24:57;;;;;;;24.30;15.23;;;;;;;;;;4994853;28;20018;-58
2021/09/22 03:27:23;;;;;;;26.95;15.73;;;;;;;;;;4994935;28;20022;-56
2021/09/22 03:29:51;;;;;;;23.10;14.83;;;;;;;;;;4994774;28;20033;-59
2021/09/22 03:32:19;;;;;;;24.35;15.55;;;;;;;;;;4993186;28;20332;-57
2021/09/22 03:34:51;;;;;;;27.23;16.70;;;;;;;;;;4992971;28;20037;-57
2021/09/22 03:37:16;;;;;;;26.02;16.20;;;;;;;;;;4994450;28;20127;-55
2021/09/22 03:39:44;;;;;;;26.00;16.35;;;;;;;;;;4994630;28;20046;-56
2021/09/22 03:42:12;;;;;;;24.65;15.45;;;;;;;;;;4995118;28;20022;-58
2021/09/22 03:44:44;;;;;;;27.15;16.27;;;;;;;;;;5012702;28;20520;-57
2021/09/22 03:47:15;;;;;;;26.05;15.82;;;;;;;;;;5012807;28;20029;-57
2021/09/22 03:49:40;;;;;;;26.33;16.35;;;;;;;;;;5012658;28;20018;-56
2021/09/22 03:52:06;;;;;;;26.30;16.35;;;;;;;;;;5012081;28;20075;-57
2021/09/22 03:54:37;;;;;;;23.48;16.23;;;;;;;;;;5012550;28;20129;-57
2021/09/22 03:57:02;;;;;;;27.30;16.85;;;;;;;;;;5012937;28;20034;-58
2021/09/22 03:59:27;;;;;;;24.80;16.17;;;;;;;;;;5013940;28;20433;-59
2021/09/22 04:01:58;;;;;;;23.20;15.27;;;;;;;;;;5013504;28;20461;-55
2021/09/22 04:04:27;;;;;;;26.88;16.38;;;;;;;;;;5012434;28;20265;-55
2021/09/22 04:06:52;;;;;;;25.88;16.83;;;;;;;;;;4996725;28;20386;-55
2021/09/22 04:09:18;;;;;;;27.35;17.52;;;;;;;;;;4992778;28;20076;-55
2021/09/22 04:11:46;;;;;;;31.60;18.27;;;;;;;;;;4993628;28;20363;-58
2021/09/22 04:14:14;;;;;;;28.00;17.02;;;;;;;;;;5012958;28;20026;-59
2021/09/22 04:16:45;;;;;;;26.23;16.92;;;;;;;;;;4995034;28;20077;-58
2021/09/22 04:19:11;;;;;;;30.00;16.85;;;;;;;;;;4993876;28;20018;-58
2021/09/22 04:21:36;;;;;;;26.60;16.42;;;;;;;;;;4993420;28;20022;-59
2021/09/22 04:24:09;;;;;;;26.02;16.35;;;;;;;;;;4993883;28;20048;-59
2021/09/22 04:26:35;;;;;;;27.02;17.10;;;;;;;;;;4992425;28;20031;-57
2021/09/22 04:29:03;;;;;;;30.92;17.15;;;;;;;;;;4993743;28;20501;-58
2021/09/22 04:31:28;;;;;;;25.73;16.70;;;;;;;;;;4991835;28;20064;-56
2021/09/22 04:33:54;;;;;;;26.35;17.02;;;;;;;;;;4993708;28;20046;-57
2021/09/22 04:36:19;;;;;;;27.23;17.65;;;;;;;;;;4993504;28;20026;-56
2021/09/22 04:38:45;;;;;;;28.15;17.95;;;;;;;;;;4993461;28;20366;-58
2021/09/22 04:41:25;;;;;;;33.33;18.33;;;;;;;;;;4992950;28;20421;-55
2021/09/22 04:43:50;;;;;;;28.55;18.10;;;;;;;;;;5013670;23;20042;-57
2021/09/22 04:46:19;;;;;;;30.57;18.13;;;;;;;;;;4991673;28;20014;-55
2021/09/22 04:48:47;;;;;;;24.92;17.13;;;;;;;;;;4993359;28;20258;-54
2021/09/22 04:51:15;;;;;;;31.20;18.80;;;;;;;;;;4975016;28;20027;-52
2021/09/22 04:53:40;;;;;;;29.00;18.83;;;;;;;;;;4974681;28;20397;-53
2021/09/22 04:56:05;;;;;;;30.30;18.03;;;;;;;;;;4974444;28;20023;-51
2021/09/22 04:58:34;;;;;;;29.27;18.70;;;;;;;;;;4974234;28;20661;-49
2021/09/22 05:01:01;;;;;;;29.58;18.10;;;;;;;;;;4977282;28;20469;-59
2021/09/22 05:03:30;;;;;;;29.98;18.70;;;;;;;;;;4981369;28;20488;-57
2021/09/22 05:05:58;;;;;;;29.95;18.27;;;;;;;;;;4973137;28;20018;-57
2021/09/22 05:08:24;;;;;;;30.63;19.10;;;;;;;;;;4974316;28;20097;-55
2021/09/22 05:10:49;;;;;;;32.42;20.40;;;;;;;;;;4974125;28;20113;-56
2021/09/22 05:13:14;;;;;;;36.20;19.50;;;;;;;;;;4977144;28;20049;-58
2021/09/22 05:15:39;;;;;;;30.60;19.05;;;;;;;;;;4984636;28;20273;-56
2021/09/22 05:18:16;;;;;;;31.05;20.65;;;;;;;;;;4972922;28;20018;-55
2021/09/22 05:20:42;;;;;;;33.45;20.60;;;;;;;;;;4972932;28;20019;-51
2021/09/22 05:23:07;;;;;;;33.88;21.38;;;;;;;;;;4977809;28;20069;-59
2021/09/22 05:25:32;;;;;;;32.45;20.95;;;;;;;;;;4984393;28;20033;-58
2021/09/22 05:27:58;;;;;;;36.57;20.83;;;;;;;;;;4987765;28;20547;-52
2021/09/22 05:30:23;;;;;;;33.17;20.97;;;;;;;;;;4988689;28;20744;-52
2021/09/22 05:32:48;;;;;;;32.20;20.30;;;;;;;;;;4983228;28;20637;-54
2021/09/22 05:35:14;;;;;;;35.28;19.75;;;;;;;;;;4984686;28;20053;-56
2021/09/22 05:37:39;;;;;;;32.00;20.13;;;;;;;;;;4976205;28;20077;-55
2021/09/22 05:40:05;;;;;;;35.83;21.33;;;;;;;;;;4979195;28;20088;-55
2021/09/22 05:42:30;;;;;;;36.08;21.85;;;;;;;;;;4982320;28;20335;-57
2021/09/22 05:44:58;;;;;;;34.50;20.83;;;;;;;;;;4982857;28;20255;-58
2021/09/22 05:47:26;;;;;;;31.02;20.38;;;;;;;;;;4986576;28;20022;-52
2021/09/22 05:49:51;;;;;;;29.48;19.27;;;;;;;;;;4985397;28;20050;-56
2021/09/22 05:52:16;;;;;;;33.88;20.80;;;;;;;;;;4985435;28;20030;-58
2021/09/22 05:54:42;;;;;;;34.10;19.60;;;;;;;;;;4982232;28;20026;-58
2021/09/22 05:57:07;;;;;;;33.30;20.67;;;;;;;;;;4985328;28;20273;-58
2021/09/22 05:59:32;;;;;;;31.20;19.58;;;;;;;;;;4974248;28;20023;-57
2021/09/22 06:01:57;;;;;;;28.70;18.50;;;;;;;;;;4988360;28;20025;-55
2021/09/22 06:04:23;;;;;;;33.77;19.73;;;;;;;;;;4981942;28;20482;-57
2021/09/22 06:06:48;;;;;;;32.15;19.75;;;;;;;;;;4926538;28;20780;-55
2021/09/22 06:09:13;;;;;;;32.55;20.08;;;;;;;;;;4966303;28;20019;-57
2021/09/22 06:11:39;;;;;;;30.37;19.83;;;;;;;;;;4981889;28;20022;-56
2021/09/22 06:14:06;;;;;;;34.67;19.77;;;;;;;;;;4984959;28;20290;-58
2021/09/22 06:16:31;;;;;;;29.35;19.70;;;;;;;;;;4985324;28;20097;-57
2021/09/22 06:18:57;;;;;;;31.42;19.52;;;;;;;;;;4968886;28;20030;-53
2021/09/22 06:21:23;;;;;;;28.80;19.45;;;;;;;;;;4984311;28;20022;-52
2021/09/22 06:23:54;;;;;;;32.38;20.95;;;;;;;;;;4982618;28;20329;-58
2021/09/22 06:26:20;;;;;;;36.35;20.52;;;;;;;;;;4974508;28;20062;-55
2021/09/22 06:28:45;;;;;;;33.38;20.08;;;;;;;;;;4990606;28;20049;-54
2021/09/22 06:31:11;;;;;;;35.17;21.42;;;;;;;;;;4981368;28;20054;-50
2021/09/22 06:33:36;;;;;;;33.47;21.80;;;;;;;;;;4986287;28;20036;-58
2021/09/22 06:36:01;;;;;;;33.13;20.20;;;;;;;;;;4984047;28;20258;-56
2021/09/22 06:38:27;;;;;;;35.60;21.08;;;;;;;;;;4971763;28;20275;-58
2021/09/22 06:40:53;;;;;;;32.90;20.48;;;;;;;;;;4973092;28;20027;-57
2021/09/22 06:43:18;;;;;;;32.33;20.55;;;;;;;;;;4973242;28;20040;-57
2021/09/22 06:45:44;;;;;;;35.55;21.67;;;;;;;;;;4972938;28;20054;-56
2021/09/22 06:48:09;;;;;;;33.70;21.85;;;;;;;;;;4973054;28;20030;-60
2021/09/22 06:50:34;;;;;;;33.55;21.20;;;;;;;;;;4971945;28;20468;-57
2021/09/22 06:52:59;;;;;;;35.05;21.88;;;;;;;;;;4973004;28;20022;-55
2021/09/22 06:55:25;;;;;;;32.10;20.90;;;;;;;;;;4971721;28;20054;-51
2021/09/22 06:57:50;;;;;;;35.55;21.27;;;;;;;;;;4973051;28;20015;-51
2021/09/22 07:00:16;;;;;;;32.72;21.17;;;;;;;;;;4991388;28;20483;-55
2021/09/22 07:02:41;;;;;;;32.40;19.88;;;;;;;;;;4991084;28;20026;-51
2021/09/22 07:05:08;;;;;;;35.42;21.50;;;;;;;;;;4992219;28;20102;-54
2021/09/22 07:07:33;;;;;;;30.00;18.63;;;;;;;;;;4992316;28;20038;-53
2021/09/22 07:09:58;;;;;;;28.10;19.08;;;;;;;;;;4995073;28;20015;-50
2021/09/22 07:12:24;;;;;;;31.63;21.03;;;;;;;;;;4995934;28;20105;-50
2021/09/22 07:14:49;;;;;;;33.77;18.90;;;;;;;;;;4995609;28;20628;-59
2021/09/22 07:17:17;;;;;;;28.88;19.92;;;;;;;;;;4994566;28;20276;-58
2021/09/22 07:19:42;;;;;;;33.17;19.77;;;;;;;;;;4996110;28;20022;-58
2021/09/22 07:22:07;;;;;;;28.23;19.10;;;;;;;;;;4994500;28;20064;-58
2021/09/22 07:24:33;;;;;;;29.00;18.27;;;;;;;;;;4995479;28;20262;-58
2021/09/22 07:26:58;;;;;;;28.33;18.63;;;;;;;;;;4985220;28;20347;-57
2021/09/22 07:29:23;;;;;;;29.57;18.13;;;;;;;;;;4976162;28;20333;-57
2021/09/22 07:31:48;;;;;;;24.90;17.33;;;;;;;;;;4979446;28;20277;-56
2021/09/22 07:34:14;;;;;;;29.48;18.30;;;;;;;;;;4978990;28;20324;-56
2021/09/22 07:36:39;;;;;;;27.27;17.63;;;;;;;;;;4975976;28;20485;-59
2021/09/22 07:39:04;;;;;;;25.95;17.65;;;;;;;;;;4974611;28;20676;-60
2021/09/22 07:41:29;;;;;;;25.25;17.67;;;;;;;;;;4974777;28;20023;-59
2021/09/22 07:43:55;;;;;;;25.63;16.67;;;;;;;;;;4974484;28;20026;-58
2021/09/22 07:46:20;;;;;;;25.73;17.17;;;;;;;;;;4974742;28;20106;-58
2021/09/22 07:48:45;;;;;;;24.38;16.30;;;;;;;;;;4975857;28;20301;-59
2021/09/22 07:51:10;;;;;;;27.50;17.90;;;;;;;;;;4975843;28;20023;-54
2021/09/22 07:53:36;;;;;;;24.73;16.48;;;;;;;;;;4975589;28;20029;-54
2021/09/22 07:56:01;;;;;;;24.30;17.08;;;;;;;;;;4975798;28;20030;-59
2021/09/22 07:58:26;;;;;;;23.87;17.03;;;;;;;;;;4975702;28;20031;-59
2021/09/22 08:00:52;;;;;;;25.15;16.85;;;;;;;;;;4975607;28;20270;-60
2021/09/22 08:03:17;;;;;;;25.67;17.77;;;;;;;;;;4974282;28;20033;-60
2021/09/22 08:05:42;;;;;;;24.50;16.50;;;;;;;;;;4984441;28;20257;-58
2021/09/22 08:08:08;;;;;;;28.77;17.73;;;;;;;;;;4992827;28;20055;-59
2021/09/22 08:10:35;;;;;;;25.95;17.15;;;;;;;;;;4994101;28;20470;-59
2021/09/22 08:13:00;;;;;;;24.90;17.02;;;;;;;;;;4992718;28;20069;-59
2021/09/22 08:15:25;;;;;;;25.20;16.48;;;;;;;;;;4994532;28;20417;-58
2021/09/22 08:17:50;;;;;;;22.93;16.30;;;;;;;;;;4988330;28;20030;-60
2021/09/22 08:20:16;;;;;;;24.67;16.47;;;;;;;;;;4992446;28;20331;-59
2021/09/22 08:22:42;;;;;;;22.77;15.32;;;;;;;;;;4991733;28;20292;-61
2021/09/22 08:25:08;;;;;;;24.88;16.10;;;;;;;;;;4973200;28;20030;-60
2021/09/22 08:27:33;;;;;;;24.05;16.52;;;;;;;;;;4990726;28;20076;-60
2021/09/22 08:29:58;;;;;;;23.38;16.65;;;;;;;;;;4993204;28;20023;-61
2021/09/22 08:32:24;;;;;;;23.67;16.93;;;;;;;;;;4991695;28;20018;-56
2021/09/22 08:34:49;;;;;;;23.85;16.65;;;;;;;;;;4974763;28;20266;-58
2021/09/22 08:37:14;;;;;;;25.47;17.90;;;;;;;;;;4973470;28;20169;-59
2021/09/22 08:39:39;;;;;;;25.17;17.20;;;;;;;;;;4973570;28;20369;-59
2021/09/22 08:42:05;;;;;;;25.23;17.55;;;;;;;;;;4974685;28;20497;-61
2021/09/22 08:44:33;;;;;;;27.48;16.75;;;;;;;;;;4973130;28;20054;-61
2021/09/22 08:46:58;;;;;;;27.67;18.63;;;;;;;;;;4974614;28;20458;-60
2021/09/22 08:49:24;;;;;;;24.70;17.73;;;;;;;;;;4973491;28;20031;-60
2021/09/22 08:51:50;;;;;;;24.58;16.90;;;;;;;;;;4974401;28;20018;-61
2021/09/22 08:54:15;;;;;;;26.65;16.60;;;;;;;;;;4974515;28;20097;-60
2021/09/22 08:56:42;;;;;;;28.98;16.92;;;;;;;;;;4973190;28;20461;-60
2021/09/22 08:59:08;;;;;;;26.02;17.30;;;;;;;;;;4973208;28;20508;-59
2021/09/22 09:01:33;;;;;;;23.73;16.90;;;;;;;;;;4972971;28;20027;-60
2021/09/22 09:04:11;;;;;;;25.23;17.58;;;;;;;;;;4974403;28;20490;-61
2021/09/22 09:06:38;;;;;;;25.60;17.25;;;;;;;;;;4974261;28;20097;-60
2021/09/22 09:09:04;;;;;;;26.10;18.20;;;;;;;;;;4973084;28;20019;-59
2021/09/22 09:11:31;;;;;;;25.92;17.65;;;;;;;;;;4974238;28;20065;-60
2021/09/22 09:13:57;;;;;;;25.98;17.67;;;;;;;;;;4974093;28;20019;-55
2021/09/22 09:16:23;;;;;;;26.38;17.40;;;;;;;;;;4974164;28;20370;-55
2021/09/22 09:18:55;;;;;;;23.73;17.33;;;;;;;;;;4974007;28;20072;-57
2021/09/22 09:21:23;;;;;;;27.10;18.10;;;;;;;;;;4973979;28;20118;-54
2021/09/22 09:23:57;;;;;;;27.90;17.67;;;;;;;;;;4973967;28;20027;-54
2021/09/22 09:26:24;;;;;;;23.02;16.30;;;;;;;;;;4985484;28;20113;-55
2021/09/22 09:28:51;;;;;;;22.13;16.13;;;;;;;;;;4973931;28;20421;-60
2021/09/22 09:31:17;;;;;;;22.48;16.45;;;;;;;;;;4972048;28;20110;-61
2021/09/22 09:33:43;;;;;;;25.77;17.02;;;;;;;;;;4980112;28;20146;-60
2021/09/22 09:36:14;;;;;;;24.05;16.88;;;;;;;;;;4973728;28;20130;-61
2021/09/22 09:38:41;;;;;;;24.02;16.55;;;;;;;;;;4973795;28;20037;-60
2021/09/22 09:41:06;;;;;;;20.35;15.40;;;;;;;;;;4973521;28;20022;-61
2021/09/22 09:43:31;;;;;;;24.73;17.47;;;;;;;;;;4972409;28;20544;-60
2021/09/22 09:45:57;;;;;;;22.58;16.67;;;;;;;;;;4972152;28;20653;-60
2021/09/22 09:48:22;;;;;;;24.77;17.00;;;;;;;;;;4973723;28;20466;-58
2021/09/22 09:50:54;;;;;;;24.17;17.00;;;;;;;;;;4972400;28;20757;-53
2021/09/22 09:53:24;;;;;;;22.88;16.30;;;;;;;;;;4972302;28;20294;-58
2021/09/22 09:55:50;;;;;;;22.55;15.95;;;;;;;;;;4973606;28;20034;-56
2021/09/22 09:58:15;;;;;;;23.88;17.00;;;;;;;;;;4972179;28;20371;-58
2021/09/22 10:00:40;;;;;;;23.63;16.23;;;;;;;;;;4973459;28;20022;-59
2021/09/22 10:03:15;;;;;;;27.57;16.77;;;;;;;;;;4973356;28;20286;-57
2021/09/22 10:05:40;;;;;;;27.25;15.82;;;;;;;;;;4973526;28;20034;-53
2021/09/22 10:08:06;;;;;;;21.73;16.08;;;;;;;;;;4973315;28;20027;-53
2021/09/22 10:10:31;;;;;;;21.58;15.65;;;;;;;;;;4972214;28;20023;-53
2021/09/22 10:12:57;;;;;;;21.67;15.50;;;;;;;;;;4973295;28;20109;-57
2021/09/22 10:15:27;;;;;;;21.67;14.90;;;;;;;;;;4972146;28;20118;-55
2021/09/22 10:17:54;;;;;;;20.17;15.13;;;;;;;;;;4973323;28;20038;-54
2021/09/22 10:20:19;;;;;;;26.23;16.40;;;;;;;;;;4972293;28;20299;-60
2021/09/22 10:22:44;;;;;;;20.92;15.40;;;;;;;;;;4973040;28;20034;-61
2021/09/22 10:25:10;;;;;;;20.13;15.88;;;;;;;;;;4982392;28;20026;-61
2021/09/22 10:27:36;;;;;;;20.08;15.18;;;;;;;;;;4975740;28;20098;-61
2021/09/22 10:30:04;;;;;;;22.13;15.98;;;;;;;;;;4973332;28;20015;-60
2021/09/22 10:32:32;;;;;;;21.77;15.70;;;;;;;;;;4979571;28;20034;-61
2021/09/22 10:35:18;;;;;;;21.58;15.23;;;;;;;;;;4973218;28;20050;-60
2021/09/22 10:37:43;;;;;;;20.08;14.93;;;;;;;;;;4973147;28;20023;-60
2021/09/22 10:40:12;;;;;;;20.60;15.13;;;;;;;;;;4973195;28;20093;-59
2021/09/22 10:42:38;;;;;;;17.67;14.68;;;;;;;;;;4973346;28;20062;-60
2021/09/22 10:45:15;;;;;;;19.40;14.80;;;;;;;;;;4976783;28;20071;-61
2021/09/22 10:47:41;;;;;;;18.52;13.27;;;;;;;;;;4977001;28;20035;-61
2021/09/22 10:50:07;;;;;;;17.92;13.98;;;;;;;;;;4976716;28;20014;-61
2021/09/22 10:52:36;;;;;;;20.83;13.82;;;;;;;;;;4976674;28;20019;-61
2021/09/22 10:55:05;;;;;;;20.42;14.48;;;;;;;;;;4976628;28;20106;-61
2021/09/22 10:57:30;;;;;;;18.08;13.98;;;;;;;;;;4976783;28;20046;-61
2021/09/22 11:00:07;;;;;;;20.53;13.70;;;;;;;;;;4976647;28;20022;-59
2021/09/22 11:02:58;;;;;;;18.98;14.05;;;;;;;;;;4976568;28;20282;-61
2021/09/22 11:05:26;;;;;;;19.00;13.35;;;;;;;;;;4973923;28;20054;-61
2021/09/22 11:07:52;;;;;;;18.20;14.40;;;;;;;;;;4976448;28;20442;-61
2021/09/22 11:10:30;;;;;;;19.97;12.60;;;;;;;;;;4976580;28;20078;-61
2021/09/22 11:13:15;;;;;;;16.58;12.65;;;;;;;;;;4976452;28;20062;-62
2021/09/22 11:15:41;;;;;;;18.33;13.52;;;;;;;;;;4976246;28;20033;-63
2021/09/22 11:18:06;;;;;;;16.63;12.98;;;;;;;;;;4985156;28;20102;-62
2021/09/22 11:20:31;;;;;;;18.90;13.60;;;;;;;;;;4985125;28;20130;-60
2021/09/22 11:23:05;;;;;;;16.20;11.97;;;;;;;;;;4989782;28;20030;-61
2021/09/22 11:25:31;;;;;;;17.10;13.30;;;;;;;;;;4990718;28;20353;-61
2021/09/22 11:28:02;;;;;;;18.55;13.70;;;;;;;;;;4991194;28;20018;-61
2021/09/22 11:30:27;;;;;;;17.10;12.40;;;;;;;;;;4991863;28;20084;-61
2021/09/22 11:32:52;;;;;;;17.13;13.13;;;;;;;;;;4983982;28;20023;-61
2021/09/22 11:35:19;;;;;;;21.07;13.03;;;;;;;;;;4992828;28;20260;-61
2021/09/22 11:37:46;;;;;;;16.13;13.27;;;;;;;;;;4978415;28;20321;-60
2021/09/22 11:40:13;;;;;;;16.75;13.55;;;;;;;;;;4978002;28;20034;-61
2021/09/22 11:43:06;;;;;;;14.88;12.07;;;;;;;;;;4997258;28;20382;-61
2021/09/22 11:45:37;;;;;;;17.38;12.43;;;;;;;;;;4986346;28;20038;-59
2021/09/22 11:48:03;;;;;;;18.33;11.88;;;;;;;;;;4985617;28;20014;-59
2021/09/22 11:50:28;;;;;;;16.08;12.45;;;;;;;;;;4984343;28;20022;-60
2021/09/22 11:52:54;;;;;;;17.17;13.43;;;;;;;;;;4991148;28;20452;-60
2021/09/22 11:55:19;;;;;;;15.48;12.10;;;;;;;;;;4980045;28;20102;-60
2021/09/22 11:57:45;;;;;;;16.27;11.82;;;;;;;;;;4990438;28;20029;-60
2021/09/22 12:00:17;;;;;;;13.25;10.55;;;;;;;;;;4981780;28;20023;-60
2021/09/22 12:02:43;;;;;;;14.55;11.25;;;;;;;;;;4986866;28;20516;-60
2021/09/22 12:05:12;;;;;;;14.25;11.23;;;;;;;;;;4989395;28;20026;-60
2021/09/22 12:07:38;;;;;;;12.60;10.43;;;;;;;;;;4994755;28;20029;-60
2021/09/22 12:10:04;;;;;;;15.65;11.07;;;;;;;;;;4995003;28;20018;-59
2021/09/22 12:12:31;;;;;;;13.68;10.75;;;;;;;;;;4994897;28;20116;-60
2021/09/22 12:14:57;;;;;;;12.13;9.73;;;;;;;;;;4994746;28;20062;-60
2021/09/22 12:17:27;;;;;;;11.15;9.38;;;;;;;;;;4994704;28;20481;-60
2021/09/22 12:19:53;;;;;;;13.00;9.20;;;;;;;;;;4993455;28;20025;-60
2021/09/22 12:22:26;;;;;;;11.02;9.13;;;;;;;;;;4993225;28;20365;-60
2021/09/22 12:24:52;;;;;;;13.73;9.50;;;;;;;;;;4994524;28;20015;-60
2021/09/22 12:27:18;;;;;;;16.98;9.90;;;;;;;;;;4981567;28;20022;-60
2021/09/22 12:29:49;;;;;;;12.30;9.32;;;;;;;;;;4973872;28;20054;-59
2021/09/22 12:32:15;;;;;;;12.23;8.63;;;;;;;;;;4981271;28;20030;-59
2021/09/22 12:34:42;;;;;;;11.18;8.55;;;;;;;;;;4974773;28;20030;-60
2021/09/22 12:37:14;;;;;;;10.35;9.05;;;;;;;;;;4974885;28;20027;-57
2021/09/22 12:39:49;;;;;;;10.45;8.27;;;;;;;;;;4974773;28;20055;-59
2021/09/22 12:42:14;;;;;;;9.90;8.60;;;;;;;;;;4974684;28;20065;-56
2021/09/22 12:44:52;;;;;;;12.33;9.07;;;;;;;;;;4974534;28;20078;-60
2021/09/22 12:47:17;;;;;;;11.50;9.32;;;;;;;;;;4974560;28;20346;-58
2021/09/22 12:49:43;;;;;;;12.17;9.87;;;;;;;;;;4974766;28;20445;-60
2021/09/22 12:52:19;;;;;;;11.57;8.60;;;;;;;;;;4974576;28;20266;-60
2021/09/22 12:54:45;;;;;;;9.88;7.88;;;;;;;;;;4973288;28;20520;-60
2021/09/22 12:57:12;;;;;;;17.48;9.30;;;;;;;;;;4973194;28;20022;-60
2021/09/22 12:59:37;;;;;;;10.68;8.60;;;;;;;;;;4974433;28;20030;-60
2021/09/22 13:02:02;;;;;;;12.50;9.70;;;;;;;;;;4974332;28;20363;-60
2021/09/22 13:04:31;;;;;;;9.82;8.30;;;;;;;;;;4973157;28;20025;-60
2021/09/22 13:06:57;;;;;;;9.65;7.80;;;;;;;;;;4973679;28;20030;-60
2021/09/22 13:09:30;;;;;;;11.02;8.10;;;;;;;;;;4975888;28;20018;-60
2021/09/22 13:11:58;;;;;;;;;;;;;;;;;;4982846;28;20035;-61
2021/09/22 13:14:36;;;;;;;11.13;8.77;;;;;;;;;;4971817;28;19941;-61
2021/09/22 13:17:01;;;;;;;11.32;8.70;;;;;;;;;;4970675;28;20065;-61
2021/09/22 13:19:28;;;;;;;9.32;7.78;;;;;;;;;;4986488;28;20030;-61
2021/09/22 13:22:00;;;;;;;8.95;7.38;;;;;;;;;;4977518;28;20031;-61
2021/09/22 13:24:28;;;;;;;;;;;;;;;;;;4972576;28;20015;-61
2021/09/22 13:26:58;;;;;;;8.43;7.38;;;;;;;;;;4976490;28;20000;-61
2021/09/22 13:29:23;;;;;;;13.45;8.27;;;;;;;;;;4990511;28;20022;-61
2021/09/22 13:31:59;;;;;;;8.70;7.53;;;;;;;;;;4991434;28;20053;-61
2021/09/22 13:34:27;;;;;;;9.40;7.70;;;;;;;;;;4990358;28;20030;-61
2021/09/22 13:36:53;;;;;;;9.73;8.13;;;;;;;;;;4976827;28;20027;-61
2021/09/22 13:39:25;;;;;;;10.38;7.88;;;;;;;;;;4972053;28;20026;-61
2021/09/22 13:41:50;;;;;;;8.55;7.65;;;;;;;;;;4985927;28;20493;-61
2021/09/22 13:44:18;;;;;;;7.88;7.07;;;;;;;;;;4991362;28;20045;-61
2021/09/22 13:46:48;;;;;;;10.77;7.07;;;;;;;;;;4990233;28;20023;-60
2021/09/22 13:49:14;;;;;;;8.60;7.25;;;;;;;;;;4991339;28;20022;-59
2021/09/22 13:51:40;;;;;;;8.93;7.10;;;;;;;;;;4990367;28;20033;-61
2021/09/22 13:54:05;;;;;;;8.45;7.43;;;;;;;;;;4981882;28;20117;-62
2021/09/22 13:56:30;;;;;;;8.10;7.13;;;;;;;;;;4972308;28;20114;-62
2021/09/22 13:58:59;;;;;;;10.02;7.22;;;;;;;;;;4969750;28;20030;-62
2021/09/22 14:01:27;;;;;;;12.10;7.55;;;;;;;;;;4969972;28;20088;-62
2021/09/22 14:03:53;;;;;;;9.48;8.02;;;;;;;;;;4972173;28;20041;-62
2021/09/22 14:06:18;;;;;;;8.93;7.40;;;;;;;;;;4971712;28;20027;-61
2021/09/22 14:08:43;;;;;;;8.13;7.23;;;;;;;;;;4972206;28;20019;-62
2021/09/22 14:11:08;;;;;;;8.27;6.83;;;;;;;;;;4975568;28;20278;-59
2021/09/22 14:13:34;;;;;;;7.60;6.80;;;;;;;;;;4971948;28;20268;-61
2021/09/22 14:16:00;;;;;;;8.30;6.90;;;;;;;;;;4971789;28;20300;-61
2021/09/22 14:18:25;;;;;;;8.35;7.03;;;;;;;;;;4989508;28;20469;-61
2021/09/22 14:20:53;;;;;;;7.47;6.67;;;;;;;;;;4995642;28;20434;-60